createdAt,value
2019-01-21T00:01:02.274Z,45.23
2019-01-21T00:03:31.584Z,46.53
2019-01-21T00:06:01.955Z,46.37
2019-01-21T00:08:31.191Z,49.97
2019-01-21T00:11:00.980Z,50.07
2019-01-21T00:13:30.700Z,47.17
2019-01-21T00:15:59.895Z,50.43
2019-01-21T00:18:29.779Z,98.43
2019-01-21T00:21:00.098Z,88.33
2019-01-21T00:23:29.712Z,61.80
2019-01-21T00:25:58.896Z,59.47
2019-01-21T00:28:28.051Z,60.60
2019-01-21T00:30:57.244Z,51.73
2019-01-21T00:33:26.687Z,54.53
2019-01-21T00:35:57.750Z,61.13
2019-01-21T00:38:26.976Z,55.50
2019-01-21T00:40:57.008Z,55.23
2019-01-21T00:43:26.480Z,54.47
2019-01-21T00:45:56.073Z,57.15
2019-01-21T00:48:26.488Z,54.73
2019-01-21T00:50:55.654Z,54.40
2019-01-21T00:53:24.833Z,53.17
2019-01-21T00:55:54.659Z,53.27
2019-01-21T00:58:24.244Z,52.60
2019-01-21T01:00:53.810Z,55.17
2019-01-21T01:03:22.979Z,52.30
2019-01-21T01:05:52.198Z,47.50
2019-01-21T01:08:21.419Z,46.67
2019-01-21T01:10:51.256Z,45.15
2019-01-21T01:13:20.489Z,43.93
2019-01-21T01:15:50.088Z,43.77
2019-01-21T01:18:19.601Z,46.23
2019-01-21T01:20:49.280Z,41.28
2019-01-21T01:23:18.867Z,42.53
2019-01-21T01:25:48.601Z,43.33
2019-01-21T01:28:17.735Z,43.13
2019-01-21T01:30:47.001Z,40.83
2019-01-21T01:33:16.171Z,39.70
2019-01-21T01:35:45.767Z,41.80
2019-01-21T01:38:15.517Z,38.60
2019-01-21T01:40:45.057Z,43.08
2019-01-21T01:43:14.349Z,40.67
2019-01-21T01:45:43.800Z,43.00
2019-01-21T01:48:13.159Z,43.30
2019-01-21T01:50:42.347Z,40.47
2019-01-21T01:53:11.581Z,39.63
2019-01-21T01:55:40.809Z,42.90
2019-01-21T01:58:10.519Z,42.63
2019-01-21T02:00:39.830Z,40.43
2019-01-21T02:03:09.359Z,37.57
2019-01-21T02:05:38.882Z,39.10
2019-01-21T02:08:08.107Z,41.30
2019-01-21T02:10:38.069Z,43.33
2019-01-21T02:13:07.255Z,42.30
2019-01-21T02:15:36.455Z,40.37
2019-01-21T02:18:06.034Z,41.37
2019-01-21T02:20:35.196Z,41.77
2019-01-21T02:23:05.992Z,40.30
2019-01-21T02:25:51.845Z,40.30
2019-01-21T02:28:29.564Z,41.27
2019-01-21T02:31:43.148Z,40.50
2019-01-21T02:34:40.705Z,40.13
2019-01-21T02:37:51.068Z,38.87
2019-01-21T02:40:52.959Z,39.50
2019-01-21T02:44:00.245Z,38.73
2019-01-21T02:47:11.135Z,40.00
2019-01-21T02:50:06.625Z,36.70
2019-01-21T02:53:32.555Z,39.40
2019-01-21T02:56:50.516Z,37.73
2019-01-21T02:59:50.801Z,41.33
2019-01-21T03:02:52.586Z,38.10
2019-01-21T03:05:56.863Z,40.20
2019-01-21T03:09:40.955Z,44.97
2019-01-21T03:13:09.859Z,40.70
2019-01-21T03:16:47.373Z,40.27
2019-01-21T03:19:50.492Z,41.50
2019-01-21T03:23:16.591Z,39.83
2019-01-21T03:26:27.230Z,41.50
2019-01-21T03:29:41.076Z,39.73
2019-01-21T03:33:03.790Z,42.60
2019-01-21T03:35:47.413Z,36.47
2019-01-21T03:38:58.072Z,43.17
2019-01-21T03:42:11.116Z,39.47
2019-01-21T03:45:16.539Z,37.73
2019-01-21T03:48:24.620Z,37.00
2019-01-21T03:51:41.280Z,36.70
2019-01-21T03:54:23.358Z,37.37
2019-01-21T03:57:13.844Z,40.03
2019-01-21T04:00:11.510Z,37.27
2019-01-21T04:03:32.575Z,38.70
2019-01-21T04:06:19.637Z,36.93
2019-01-21T04:09:18.017Z,37.10
2019-01-21T04:12:35.118Z,38.20
2019-01-21T04:15:41.139Z,36.50
2019-01-21T04:19:09.829Z,37.43
2019-01-21T04:21:58.383Z,33.60
2019-01-21T04:25:05.460Z,36.90
2019-01-21T04:28:06.931Z,34.43
2019-01-21T04:31:07.077Z,36.77
2019-01-21T04:34:25.858Z,34.70
2019-01-21T04:37:34.374Z,36.00
2019-01-21T04:40:51.687Z,33.93
2019-01-21T04:44:04.970Z,35.83
2019-01-21T04:47:02.993Z,36.00
2019-01-21T04:50:13.461Z,35.63
2019-01-21T04:53:16.535Z,33.97
2019-01-21T04:56:18.493Z,37.30
2019-01-21T04:59:23.583Z,35.73
2019-01-21T05:02:34.721Z,34.60
2019-01-21T05:05:50.215Z,33.30
2019-01-21T05:08:49.594Z,33.70
2019-01-21T05:11:57.691Z,37.70
2019-01-21T05:15:16.041Z,36.73
2019-01-21T05:18:41.600Z,37.37
2019-01-21T05:21:50.121Z,35.40
2019-01-21T05:24:59.560Z,36.87
2019-01-21T05:27:55.414Z,37.20
2019-01-21T05:30:42.268Z,38.47
2019-01-21T05:33:42.239Z,34.20
2019-01-21T05:36:54.577Z,40.30
2019-01-21T05:40:23.528Z,35.97
2019-01-21T05:43:36.986Z,38.67
2019-01-21T05:46:55.837Z,43.80
2019-01-21T05:50:24.208Z,42.67
2019-01-21T05:53:52.862Z,38.63
2019-01-21T05:57:11.412Z,38.77
2019-01-21T06:00:35.512Z,40.47
2019-01-21T06:03:41.930Z,45.30
2019-01-21T06:06:43.317Z,40.83
2019-01-21T06:09:58.911Z,48.67
2019-01-21T06:13:00.739Z,39.50
2019-01-21T06:16:29.207Z,40.03
2019-01-21T06:19:41.912Z,42.93
2019-01-21T06:22:44.937Z,38.80
2019-01-21T06:25:27.791Z,42.97
2019-01-21T06:29:02.401Z,42.60
2019-01-21T06:32:10.401Z,45.70
2019-01-21T06:35:33.065Z,48.63
2019-01-21T06:38:45.494Z,45.47
2019-01-21T06:41:40.795Z,49.87
2019-01-21T06:44:35.964Z,45.87
2019-01-21T06:47:55.058Z,48.63
2019-01-21T06:50:51.498Z,51.67
2019-01-21T06:53:47.275Z,54.57
2019-01-21T06:56:47.773Z,44.20
2019-01-21T07:00:16.120Z,47.70
2019-01-21T07:03:25.457Z,45.37
2019-01-21T07:06:53.865Z,49.47
2019-01-21T07:09:58.744Z,46.17
2019-01-21T07:13:04.413Z,49.33
2019-01-21T07:15:45.523Z,47.27
2019-01-21T07:18:50.616Z,46.93
2019-01-21T07:21:59.736Z,49.50
2019-01-21T07:24:59.156Z,49.50
2019-01-21T07:28:24.956Z,48.07
2019-01-21T07:31:31.308Z,46.87
2019-01-21T07:34:48.040Z,47.20
2019-01-21T07:37:55.717Z,44.27
2019-01-21T07:41:00.983Z,45.53
2019-01-21T07:44:13.384Z,45.90
2019-01-21T07:47:14.432Z,47.53
2019-01-21T07:50:23.843Z,46.23
2019-01-21T07:53:58.353Z,45.40
2019-01-21T07:57:07.847Z,43.60
2019-01-21T08:00:23.323Z,45.33
2019-01-21T08:03:36.676Z,42.90
2019-01-21T08:06:38.187Z,45.92
2019-01-21T08:09:35.027Z,47.23
2019-01-21T08:12:37.423Z,51.27
2019-01-21T08:15:26.279Z,50.30
2019-01-21T08:18:28.279Z,50.33
2019-01-21T08:21:49.831Z,55.50
2019-01-21T08:24:38.962Z,46.80
2019-01-21T08:27:44.720Z,51.77
2019-01-21T08:30:47.583Z,49.77
2019-01-21T08:33:56.866Z,47.13
2019-01-21T08:36:59.527Z,47.40
2019-01-21T08:40:12.870Z,49.97
2019-01-21T08:43:10.540Z,48.03
2019-01-21T08:46:24.120Z,47.73
2019-01-21T08:49:09.900Z,48.93
2019-01-21T08:52:20.303Z,49.53
2019-01-21T08:55:12.851Z,48.63
2019-01-21T08:58:44.604Z,49.10
2019-01-21T09:01:53.677Z,50.03
2019-01-21T09:04:44.421Z,49.23
2019-01-21T09:08:09.087Z,48.87
2019-01-21T09:11:01.626Z,49.37
2019-01-21T09:13:53.189Z,47.93
2019-01-21T09:17:15.931Z,46.10
2019-01-21T09:20:21.713Z,49.63
2019-01-21T09:23:41.263Z,48.97
2019-01-21T09:26:33.578Z,47.47
2019-01-21T09:29:32.229Z,51.90
2019-01-21T09:32:15.511Z,54.73
2019-01-21T09:35:10.178Z,49.80
2019-01-21T09:38:22.662Z,51.77
2019-01-21T09:41:41.781Z,53.60
2019-01-21T09:44:45.638Z,44.50
2019-01-21T09:47:13.616Z,49.03
2019-01-21T09:49:43.787Z,50.20
2019-01-21T09:52:17.584Z,56.63
2019-01-21T09:54:46.755Z,51.13
2019-01-21T09:57:21.977Z,50.73
2019-01-21T09:59:54.071Z,51.83
2019-01-21T10:02:38.241Z,51.17
2019-01-21T10:05:13.238Z,51.23
2019-01-21T10:08:28.405Z,50.83
2019-01-21T10:11:29.644Z,51.63
2019-01-21T10:14:39.047Z,50.30
2019-01-21T10:17:31.467Z,50.63
2019-01-21T10:20:27.124Z,50.63
2019-01-21T10:23:29.493Z,53.00
2019-01-21T10:26:26.372Z,47.10
2019-01-21T10:29:44.888Z,48.40
2019-01-21T10:33:06.596Z,51.27
2019-01-21T10:36:10.337Z,51.50
2019-01-21T10:39:41.782Z,49.30
2019-01-21T10:42:43.628Z,48.15
2019-01-21T10:45:24.408Z,52.53
2019-01-21T10:48:29.102Z,48.60
2019-01-21T10:51:27.403Z,48.40
2019-01-21T10:54:22.095Z,50.47
2019-01-21T10:57:24.333Z,46.17
2019-01-21T11:00:30.544Z,46.00
2019-01-21T11:03:20.733Z,48.80
2019-01-21T11:06:35.782Z,48.37
2019-01-21T11:09:26.685Z,47.07
2019-01-21T11:12:25.724Z,42.73
2019-01-21T11:15:47.537Z,42.70
2019-01-21T11:18:48.938Z,48.03
2019-01-21T11:21:48.129Z,46.10
2019-01-21T11:24:51.532Z,44.40
2019-01-21T11:27:59.487Z,41.83
2019-01-21T11:31:11.179Z,44.23
2019-01-21T11:34:24.265Z,42.30
2019-01-21T11:37:40.975Z,43.07
2019-01-21T11:40:57.146Z,43.90
2019-01-21T11:43:56.837Z,42.10
2019-01-21T11:47:19.631Z,43.97
2019-01-21T11:50:10.645Z,42.13
2019-01-21T11:53:32.905Z,41.40
2019-01-21T11:56:46.670Z,43.20
2019-01-21T12:00:11.380Z,44.00
2019-01-21T12:03:07.865Z,42.73
2019-01-21T12:05:53.186Z,39.77
2019-01-21T12:09:13.173Z,43.10
2019-01-21T12:11:53.447Z,40.57
2019-01-21T12:15:00.723Z,38.70
2019-01-21T12:18:23.271Z,39.63
2019-01-21T12:21:38.437Z,38.63
2019-01-21T12:24:22.348Z,38.87
2019-01-21T12:27:18.267Z,38.67
2019-01-21T12:30:31.316Z,37.03
2019-01-21T12:33:50.589Z,36.43
2019-01-21T12:36:37.904Z,33.97
2019-01-21T12:39:40.638Z,34.60
2019-01-21T12:42:51.192Z,34.08
2019-01-21T12:45:46.847Z,32.87
2019-01-21T12:48:31.616Z,32.10
2019-01-21T12:51:42.478Z,33.10
2019-01-21T12:55:10.941Z,31.87
2019-01-21T12:58:26.943Z,29.70
2019-01-21T13:01:24.244Z,32.33
2019-01-21T13:04:03.576Z,32.77
2019-01-21T13:07:05.761Z,33.13
2019-01-21T13:10:22.002Z,32.10
2019-01-21T13:13:34.120Z,32.00
2019-01-21T13:16:42.493Z,31.17
2019-01-21T13:20:00.776Z,32.50
2019-01-21T13:23:20.216Z,30.03
2019-01-21T13:26:36.322Z,32.03
2019-01-21T13:30:04.839Z,30.47
2019-01-21T13:32:53.629Z,30.27
2019-01-21T13:36:00.474Z,29.33
2019-01-21T13:38:53.421Z,28.90
2019-01-21T13:41:48.447Z,33.00
2019-01-21T13:44:49.871Z,31.30
2019-01-21T13:48:00.291Z,30.63
2019-01-21T13:51:04.494Z,31.13
2019-01-21T13:54:19.858Z,31.30
2019-01-21T13:57:14.017Z,30.77
2019-01-21T14:00:27.552Z,31.93
2019-01-21T14:03:13.411Z,28.60
2019-01-21T14:06:05.736Z,29.57
2019-01-21T14:09:24.895Z,30.53
2019-01-21T14:12:25.471Z,30.23
2019-01-21T14:15:25.356Z,30.53
2019-01-21T14:18:22.591Z,30.67
2019-01-21T14:21:19.932Z,31.00
2019-01-21T14:24:20.472Z,29.97
2019-01-21T14:27:05.775Z,29.00
2019-01-21T14:30:20.116Z,29.87
2019-01-21T14:33:20.925Z,27.53
2019-01-21T14:36:28.908Z,28.20
2019-01-21T14:39:21.035Z,29.00
2019-01-21T14:42:45.872Z,29.00
2019-01-21T14:45:37.842Z,28.13
2019-01-21T14:48:51.307Z,29.13
2019-01-21T14:52:01.906Z,27.50
2019-01-21T14:55:07.465Z,26.77
2019-01-21T14:58:11.164Z,27.60
2019-01-21T15:01:30.298Z,27.50
2019-01-21T15:04:28.203Z,26.40
2019-01-21T15:07:14.685Z,26.57
2019-01-21T15:10:25.508Z,25.30
2019-01-21T15:13:38.380Z,28.40
2019-01-21T15:16:22.816Z,27.70
2019-01-21T15:19:32.148Z,26.63
2019-01-21T15:22:39.262Z,27.30
2019-01-21T15:26:05.439Z,29.77
2019-01-21T15:28:46.979Z,28.97
2019-01-21T15:32:12.158Z,27.03
2019-01-21T15:35:26.111Z,27.07
2019-01-21T15:38:26.034Z,30.57
2019-01-21T15:41:31.430Z,29.43
2019-01-21T15:44:30.637Z,30.10
2019-01-21T15:47:54.956Z,31.20
2019-01-21T15:51:05.024Z,28.80
2019-01-21T15:54:07.216Z,29.43
2019-01-21T15:57:32.219Z,31.83
2019-01-21T16:00:43.238Z,30.27
2019-01-21T16:03:45.945Z,31.63
2019-01-21T16:06:44.622Z,32.07
2019-01-21T16:09:45.925Z,30.70
2019-01-21T16:12:38.731Z,33.57
2019-01-21T16:15:31.728Z,34.15
2019-01-21T16:18:28.156Z,34.63
2019-01-21T16:21:26.921Z,34.43
2019-01-21T16:24:26.291Z,36.10
2019-01-21T16:27:04.935Z,36.53
2019-01-21T16:29:39.611Z,44.30
2019-01-21T16:32:29.429Z,40.27
2019-01-21T16:35:37.792Z,39.10
2019-01-21T16:38:41.626Z,43.33
2019-01-21T16:41:51.060Z,50.40
2019-01-21T16:44:20.601Z,42.40
2019-01-21T16:46:50.352Z,41.33
2019-01-21T16:49:19.577Z,38.17
2019-01-21T16:51:49.046Z,37.87
2019-01-21T16:54:18.720Z,42.10
2019-01-21T16:56:47.872Z,36.70
2019-01-21T16:59:17.084Z,36.87
2019-01-21T17:01:46.294Z,37.10
2019-01-21T17:04:15.825Z,37.00
2019-01-21T17:06:45.144Z,35.53
2019-01-21T17:09:14.314Z,35.27
2019-01-21T17:11:43.890Z,37.77
2019-01-21T17:14:13.428Z,41.40
2019-01-21T17:16:42.945Z,36.40
2019-01-21T17:19:12.377Z,36.90
2019-01-21T17:21:41.649Z,37.10
2019-01-21T17:24:10.523Z,39.17
2019-01-21T17:26:40.181Z,35.98
2019-01-21T17:29:09.763Z,38.80
2019-01-21T17:31:38.945Z,36.80
2019-01-21T17:34:08.157Z,36.60
2019-01-21T17:36:37.790Z,36.90
2019-01-21T17:39:08.953Z,35.60
2019-01-21T17:41:38.140Z,37.23
2019-01-21T17:44:07.472Z,37.50
2019-01-21T17:46:36.658Z,36.30
2019-01-21T17:49:05.840Z,34.20
2019-01-21T17:51:35.420Z,35.40
2019-01-21T17:54:04.811Z,37.43
2019-01-21T17:56:37.075Z,36.40
2019-01-21T17:59:06.318Z,36.57
2019-01-21T18:01:39.368Z,37.50
2019-01-21T18:04:06.846Z,39.00
2019-01-21T18:06:36.050Z,37.60
2019-01-21T18:09:08.888Z,35.87
2019-01-21T18:11:41.464Z,35.17
2019-01-21T18:14:09.470Z,38.30
2019-01-21T18:16:38.647Z,37.10
2019-01-21T18:19:07.976Z,37.17
2019-01-21T18:21:40.326Z,34.03
2019-01-21T18:24:08.389Z,36.20
2019-01-21T18:26:37.938Z,35.70
2019-01-21T18:29:07.498Z,33.83
2019-01-21T18:31:36.937Z,36.70
2019-01-21T18:34:06.432Z,35.30
2019-01-21T18:36:35.668Z,37.53
2019-01-21T18:39:08.167Z,36.37
2019-01-21T18:41:37.434Z,37.17
2019-01-21T18:44:07.028Z,37.33
2019-01-21T18:46:36.639Z,37.13
2019-01-21T18:49:06.096Z,42.37
2019-01-21T18:51:35.516Z,42.57
2019-01-21T18:54:05.117Z,39.80
2019-01-21T18:56:34.359Z,41.63
2019-01-21T18:59:03.582Z,37.27
2019-01-21T19:01:33.090Z,33.80
2019-01-21T19:04:03.068Z,34.97
2019-01-21T19:06:32.765Z,35.93
2019-01-21T19:09:01.991Z,38.57
2019-01-21T19:11:31.250Z,35.47
2019-01-21T19:14:00.433Z,41.27
2019-01-21T19:16:29.618Z,37.57
2019-01-21T19:18:59.532Z,45.13
2019-01-21T19:21:29.183Z,43.07
2019-01-21T19:23:58.357Z,35.60
2019-01-21T19:26:27.556Z,42.80
2019-01-21T19:28:56.774Z,34.83
2019-01-21T19:31:25.976Z,50.17
2019-01-21T19:33:55.395Z,46.13
2019-01-21T19:36:24.875Z,43.97
2019-01-21T19:38:54.149Z,36.60
2019-01-21T19:41:23.714Z,35.10
2019-01-21T19:43:53.276Z,32.97
2019-01-21T19:46:22.827Z,35.10
2019-01-21T19:48:51.980Z,31.97
2019-01-21T19:51:21.865Z,35.30
2019-01-21T19:53:51.330Z,32.77
2019-01-21T19:56:20.524Z,32.73
2019-01-21T19:58:49.702Z,32.40
2019-01-21T20:01:19.575Z,33.10
2019-01-21T20:03:48.867Z,33.70
2019-01-21T20:06:18.085Z,32.53
2019-01-21T20:08:47.330Z,32.50
2019-01-21T20:11:16.560Z,29.40
2019-01-21T20:13:47.049Z,32.63
2019-01-21T20:16:16.416Z,31.00
2019-01-21T20:18:46.119Z,30.43
2019-01-21T20:21:15.311Z,32.13
2019-01-21T20:23:45.152Z,30.33
2019-01-21T20:26:14.623Z,30.83
2019-01-21T20:28:43.800Z,29.87
2019-01-21T20:31:13.349Z,30.00
2019-01-21T20:33:42.963Z,30.20
2019-01-21T20:36:12.331Z,31.30
2019-01-21T20:38:41.884Z,29.17
2019-01-21T20:41:11.475Z,31.23
2019-01-21T20:43:41.115Z,29.17
2019-01-21T20:46:10.494Z,30.67
2019-01-21T20:48:40.119Z,30.50
2019-01-21T20:51:09.409Z,30.27
2019-01-21T20:53:38.864Z,32.90
2019-01-21T20:56:08.370Z,31.70
2019-01-21T20:58:37.562Z,32.17
2019-01-21T21:01:06.772Z,29.87
2019-01-21T21:03:36.097Z,32.70
2019-01-21T21:06:05.840Z,31.40
2019-01-21T21:08:35.415Z,32.00
2019-01-21T21:11:05.175Z,31.40
2019-01-21T21:13:34.747Z,32.43
2019-01-21T21:16:04.025Z,30.77
2019-01-21T21:18:33.260Z,29.63
2019-01-21T21:21:03.109Z,31.50
2019-01-21T21:23:32.401Z,30.00
2019-01-21T21:26:01.658Z,29.92
2019-01-21T21:28:31.340Z,32.30
2019-01-21T21:31:00.590Z,31.63
2019-01-21T21:33:30.013Z,31.57
2019-01-21T21:35:59.349Z,31.77
2019-01-21T21:38:28.990Z,31.40
2019-01-21T21:40:58.386Z,32.33
2019-01-21T21:43:27.747Z,30.70
2019-01-21T21:45:57.057Z,31.47
2019-01-21T21:48:31.757Z,31.97
2019-01-21T21:50:57.878Z,31.20
2019-01-21T21:53:27.142Z,33.63
2019-01-21T21:55:56.560Z,32.43
2019-01-21T21:58:25.822Z,29.67
2019-01-21T22:00:55.472Z,32.63
2019-01-21T22:03:24.842Z,31.40
2019-01-21T22:05:54.385Z,33.70
2019-01-21T22:08:24.024Z,32.73
2019-01-21T22:10:53.643Z,31.00
2019-01-21T22:13:22.943Z,33.90
2019-01-21T22:15:52.611Z,33.13
2019-01-21T22:18:21.875Z,33.77
2019-01-21T22:20:51.664Z,31.67
2019-01-21T22:23:20.911Z,31.87
2019-01-21T22:25:50.083Z,33.10
2019-01-21T22:28:19.329Z,32.50
2019-01-21T22:30:48.548Z,33.07
2019-01-21T22:33:18.133Z,33.53
2019-01-21T22:35:47.379Z,33.43
2019-01-21T22:38:16.587Z,33.20
2019-01-21T22:40:46.130Z,33.80
2019-01-21T22:43:15.404Z,32.67
2019-01-21T22:45:45.152Z,32.30
2019-01-21T22:48:14.651Z,32.03
2019-01-21T22:50:43.852Z,30.33
2019-01-21T22:53:13.332Z,33.03
2019-01-21T22:55:43.017Z,32.33
2019-01-21T22:58:12.612Z,33.93
2019-01-21T23:01:00.247Z,32.95
2019-01-21T23:03:30.617Z,33.37
2019-01-21T23:05:59.902Z,33.53
2019-01-21T23:08:29.405Z,32.63
2019-01-21T23:10:58.586Z,32.20
2019-01-21T23:13:28.265Z,34.50
2019-01-21T23:15:57.472Z,32.83
2019-01-21T23:18:27.169Z,34.30
2019-01-21T23:20:56.766Z,30.37
2019-01-21T23:23:25.935Z,33.60
2019-01-21T23:25:55.152Z,31.77
2019-01-21T23:28:24.672Z,35.70
2019-01-21T23:30:54.163Z,32.50
2019-01-21T23:33:23.692Z,33.20
2019-01-21T23:35:53.107Z,32.57
2019-01-21T23:38:22.580Z,33.00
2019-01-21T23:40:51.800Z,32.10
2019-01-21T23:43:21.006Z,33.90
2019-01-21T23:45:50.881Z,33.42
2019-01-21T23:48:20.425Z,31.67
2019-01-21T23:50:51.024Z,33.50
2019-01-21T23:53:20.260Z,34.20
2019-01-21T23:55:49.858Z,31.27
2019-01-21T23:58:19.801Z,33.10
